sensor_id;sensor_type;location;lat;lon;timestamp;temperature;humidity
15707;DHT22;7953;54.302;10.128;2023-05-10T00:00:49;13.60;99.90
15707;DHT22;7953;54.302;10.128;2023-05-10T00:03:16;13.60;99.90
15707;DHT22;7953;54.302;10.128;2023-05-10T00:05:43;13.60;99.90
15707;DHT22;7953;54.302;10.128;2023-05-10T00:08:10;13.60;99.90
15707;DHT22;7953;54.302;10.128;2023-05-10T00:10:38;13.50;99.90
15707;DHT22;7953;54.302;10.128;2023-05-10T00:13:06;13.50;99.90
15707;DHT22;7953;54.302;10.128;2023-05-10T00:15:33;13.40;99.90
15707;DHT22;7953;54.302;10.128;2023-05-10T00:18:00;13.40;99.90
15707;DHT22;7953;54.302;10.128;2023-05-10T00:20:27;13.40;99.90
15707;DHT22;7953;54.302;10.128;2023-05-10T00:22:54;13.40;99.90
15707;DHT22;7953;54.302;10.128;2023-05-10T00:25:21;13.40;99.90
15707;DHT22;7953;54.302;10.128;2023-05-10T00:27:49;13.30;99.90
15707;DHT22;7953;54.302;10.128;2023-05-10T00:30:16;13.30;99.90
15707;DHT22;7953;54.302;10.128;2023-05-10T00:32:44;13.30;99.90
15707;DHT22;7953;54.302;10.128;2023-05-10T00:35:11;13.20;99.90
15707;DHT22;7953;54.302;10.128;2023-05-10T00:37:38;13.30;99.90
15707;DHT22;7953;54.302;10.128;2023-05-10T00:40:06;13.30;99.90
15707;DHT22;7953;54.302;10.128;2023-05-10T00:42:33;13.20;99.90
15707;DHT22;7953;54.302;10.128;2023-05-10T00:45:01;13.10;99.90
15707;DHT22;7953;54.302;10.128;2023-05-10T00:47:28;13.10;99.90
15707;DHT22;7953;54.302;10.128;2023-05-10T00:49:55;13.10;99.90
15707;DHT22;7953;54.302;10.128;2023-05-10T00:52:23;13.10;99.90
15707;DHT22;7953;54.302;10.128;2023-05-10T00:54:51;13.10;99.90
15707;DHT22;7953;54.302;10.128;2023-05-10T00:57:18;13.00;99.90
15707;DHT22;7953;54.302;10.128;2023-05-10T00:59:45;13.00;99.90
15707;DHT22;7953;54.302;10.128;2023-05-10T01:02:14;13.00;99.90
15707;DHT22;7953;54.302;10.128;2023-05-10T01:04:41;12.90;99.90
15707;DHT22;7953;54.302;10.128;2023-05-10T01:07:08;12.90;99.90
15707;DHT22;7953;54.302;10.128;2023-05-10T01:09:36;12.90;99.90
15707;DHT22;7953;54.302;10.128;2023-05-10T01:12:03;12.90;99.90
15707;DHT22;7953;54.302;10.128;2023-05-10T01:14:32;12.80;99.90
15707;DHT22;7953;54.302;10.128;2023-05-10T01:17:00;12.80;99.90
15707;DHT22;7953;54.302;10.128;2023-05-10T01:19:30;12.80;99.90
15707;DHT22;7953;54.302;10.128;2023-05-10T01:22:04;12.80;99.90
15707;DHT22;7953;54.302;10.128;2023-05-10T01:28:09;12.80;99.90
15707;DHT22;7953;54.302;10.128;2023-05-10T01:31:08;12.70;99.90
15707;DHT22;7953;54.302;10.128;2023-05-10T01:33:47;12.70;99.90
15707;DHT22;7953;54.302;10.128;2023-05-10T01:36:25;12.70;99.90
15707;DHT22;7953;54.302;10.128;2023-05-10T01:38:57;12.70;99.90
15707;DHT22;7953;54.302;10.128;2023-05-10T01:41:29;12.70;99.90
15707;DHT22;7953;54.302;10.128;2023-05-10T01:44:04;12.70;99.90
15707;DHT22;7953;54.302;10.128;2023-05-10T01:46:37;12.70;99.90
15707;DHT22;7953;54.302;10.128;2023-05-10T01:49:09;12.70;99.90
15707;DHT22;7953;54.302;10.128;2023-05-10T01:51:40;12.70;99.90
15707;DHT22;7953;54.302;10.128;2023-05-10T01:54:09;12.70;99.90
15707;DHT22;7953;54.302;10.128;2023-05-10T01:56:38;12.60;99.90
15707;DHT22;7953;54.302;10.128;2023-05-10T01:59:11;12.60;99.90
15707;DHT22;7953;54.302;10.128;2023-05-10T02:01:40;12.60;99.90
15707;DHT22;7953;54.302;10.128;2023-05-10T02:04:09;12.60;99.90
15707;DHT22;7953;54.302;10.128;2023-05-10T02:06:38;12.60;99.90
15707;DHT22;7953;54.302;10.128;2023-05-10T02:09:06;12.50;99.90
15707;DHT22;7953;54.302;10.128;2023-05-10T02:11:33;12.60;99.90
15707;DHT22;7953;54.302;10.128;2023-05-10T02:14:01;12.60;99.90
15707;DHT22;7953;54.302;10.128;2023-05-10T02:16:29;12.60;99.90
15707;DHT22;7953;54.302;10.128;2023-05-10T02:18:58;12.50;99.90
15707;DHT22;7953;54.302;10.128;2023-05-10T02:21:28;12.50;99.90
15707;DHT22;7953;54.302;10.128;2023-05-10T02:23:57;12.40;99.90
15707;DHT22;7953;54.302;10.128;2023-05-10T02:26:24;12.40;99.90
15707;DHT22;7953;54.302;10.128;2023-05-10T02:28:53;12.40;99.90
15707;DHT22;7953;54.302;10.128;2023-05-10T02:31:22;12.40;99.90
15707;DHT22;7953;54.302;10.128;2023-05-10T02:33:49;12.40;99.90
15707;DHT22;7953;54.302;10.128;2023-05-10T02:36:16;12.40;99.90
15707;DHT22;7953;54.302;10.128;2023-05-10T02:38:45;12.40;99.90
15707;DHT22;7953;54.302;10.128;2023-05-10T02:41:14;12.30;99.90
15707;DHT22;7953;54.302;10.128;2023-05-10T02:43:42;12.30;99.90
15707;DHT22;7953;54.302;10.128;2023-05-10T02:46:09;12.30;99.90
15707;DHT22;7953;54.302;10.128;2023-05-10T02:48:36;12.30;99.90
15707;DHT22;7953;54.302;10.128;2023-05-10T02:51:05;12.30;99.90
15707;DHT22;7953;54.302;10.128;2023-05-10T02:53:35;12.20;99.90
15707;DHT22;7953;54.302;10.128;2023-05-10T02:56:08;12.20;99.90
15707;DHT22;7953;54.302;10.128;2023-05-10T02:58:38;12.20;99.90
15707;DHT22;7953;54.302;10.128;2023-05-10T03:01:05;12.10;99.90
15707;DHT22;7953;54.302;10.128;2023-05-10T03:03:33;12.10;99.90
15707;DHT22;7953;54.302;10.128;2023-05-10T03:06:00;12.10;99.90
15707;DHT22;7953;54.302;10.128;2023-05-10T03:08:27;12.10;99.90
15707;DHT22;7953;54.302;10.128;2023-05-10T03:11:04;12.10;99.90
15707;DHT22;7953;54.302;10.128;2023-05-10T03:13:39;12.10;99.90
15707;DHT22;7953;54.302;10.128;2023-05-10T03:16:12;12.10;99.90
15707;DHT22;7953;54.302;10.128;2023-05-10T03:18:44;12.10;99.90
15707;DHT22;7953;54.302;10.128;2023-05-10T03:21:12;12.00;99.90
15707;DHT22;7953;54.302;10.128;2023-05-10T03:23:43;12.10;99.90
15707;DHT22;7953;54.302;10.128;2023-05-10T03:26:14;12.00;99.90
15707;DHT22;7953;54.302;10.128;2023-05-10T03:28:45;11.90;99.90
15707;DHT22;7953;54.302;10.128;2023-05-10T03:31:14;11.90;99.90
15707;DHT22;7953;54.302;10.128;2023-05-10T03:33:46;11.90;99.90
15707;DHT22;7953;54.302;10.128;2023-05-10T03:36:13;11.80;99.90
15707;DHT22;7953;54.302;10.128;2023-05-10T03:38:40;11.80;99.90
15707;DHT22;7953;54.302;10.128;2023-05-10T03:41:07;11.80;99.90
15707;DHT22;7953;54.302;10.128;2023-05-10T03:43:34;11.80;99.90
15707;DHT22;7953;54.302;10.128;2023-05-10T03:46:04;11.80;99.90
15707;DHT22;7953;54.302;10.128;2023-05-10T03:48:32;11.80;99.90
15707;DHT22;7953;54.302;10.128;2023-05-10T03:50:59;11.80;99.90
15707;DHT22;7953;54.302;10.128;2023-05-10T03:53:25;11.70;99.90
15707;DHT22;7953;54.302;10.128;2023-05-10T03:55:52;11.80;99.90
15707;DHT22;7953;54.302;10.128;2023-05-10T03:58:19;11.70;99.90
15707;DHT22;7953;54.302;10.128;2023-05-10T04:00:47;11.80;99.90
15707;DHT22;7953;54.302;10.128;2023-05-10T04:03:15;11.80;99.90
15707;DHT22;7953;54.302;10.128;2023-05-10T04:05:42;11.80;99.90
15707;DHT22;7953;54.302;10.128;2023-05-10T04:08:09;11.70;99.90
15707;DHT22;7953;54.302;10.128;2023-05-10T04:10:36;11.70;99.90
15707;DHT22;7953;54.302;10.128;2023-05-10T04:13:03;11.70;99.90
15707;DHT22;7953;54.302;10.128;2023-05-10T04:15:30;11.70;99.90
15707;DHT22;7953;54.302;10.128;2023-05-10T04:17:56;11.70;99.90
15707;DHT22;7953;54.302;10.128;2023-05-10T04:20:25;11.80;99.90
15707;DHT22;7953;54.302;10.128;2023-05-10T04:22:51;11.80;99.90
15707;DHT22;7953;54.302;10.128;2023-05-10T04:25:19;11.80;99.90
15707;DHT22;7953;54.302;10.128;2023-05-10T04:27:46;11.80;99.90
15707;DHT22;7953;54.302;10.128;2023-05-10T04:30:13;11.80;99.90
15707;DHT22;7953;54.302;10.128;2023-05-10T04:32:39;11.90;99.90
15707;DHT22;7953;54.302;10.128;2023-05-10T04:35:07;11.90;99.90
15707;DHT22;7953;54.302;10.128;2023-05-10T04:37:36;12.00;99.90
15707;DHT22;7953;54.302;10.128;2023-05-10T04:40:04;12.00;99.90
15707;DHT22;7953;54.302;10.128;2023-05-10T04:42:31;12.00;99.90
15707;DHT22;7953;54.302;10.128;2023-05-10T04:44:58;12.00;99.90
15707;DHT22;7953;54.302;10.128;2023-05-10T04:47:25;12.10;99.90
15707;DHT22;7953;54.302;10.128;2023-05-10T04:49:52;12.10;99.90
15707;DHT22;7953;54.302;10.128;2023-05-10T04:52:19;12.00;99.90
15707;DHT22;7953;54.302;10.128;2023-05-10T04:54:47;12.00;99.90
15707;DHT22;7953;54.302;10.128;2023-05-10T04:57:14;12.10;99.90
15707;DHT22;7953;54.302;10.128;2023-05-10T04:59:41;12.10;99.90
15707;DHT22;7953;54.302;10.128;2023-05-10T05:02:08;12.10;99.90
15707;DHT22;7953;54.302;10.128;2023-05-10T05:04:35;12.10;99.90
15707;DHT22;7953;54.302;10.128;2023-05-10T05:07:01;12.10;99.90
15707;DHT22;7953;54.302;10.128;2023-05-10T05:09:28;12.10;99.90
15707;DHT22;7953;54.302;10.128;2023-05-10T05:11:58;12.10;99.90
15707;DHT22;7953;54.302;10.128;2023-05-10T05:14:26;12.20;99.90
15707;DHT22;7953;54.302;10.128;2023-05-10T05:16:53;12.20;99.90
15707;DHT22;7953;54.302;10.128;2023-05-10T05:19:20;12.20;99.90
15707;DHT22;7953;54.302;10.128;2023-05-10T05:21:47;12.20;99.90
15707;DHT22;7953;54.302;10.128;2023-05-10T05:24:13;12.30;99.90
15707;DHT22;7953;54.302;10.128;2023-05-10T05:26:40;12.30;99.90
15707;DHT22;7953;54.302;10.128;2023-05-10T05:29:08;12.30;99.90
15707;DHT22;7953;54.302;10.128;2023-05-10T05:31:35;12.30;99.90
15707;DHT22;7953;54.302;10.128;2023-05-10T05:34:02;12.40;99.90
15707;DHT22;7953;54.302;10.128;2023-05-10T05:36:29;12.40;99.90
15707;DHT22;7953;54.302;10.128;2023-05-10T05:38:57;12.40;99.90
15707;DHT22;7953;54.302;10.128;2023-05-10T05:41:23;12.50;99.90
15707;DHT22;7953;54.302;10.128;2023-05-10T05:43:51;12.50;99.90
15707;DHT22;7953;54.302;10.128;2023-05-10T05:46:19;12.60;99.90
15707;DHT22;7953;54.302;10.128;2023-05-10T05:48:46;12.70;99.90
15707;DHT22;7953;54.302;10.128;2023-05-10T05:51:13;12.70;99.90
15707;DHT22;7953;54.302;10.128;2023-05-10T05:53:40;12.70;99.90
15707;DHT22;7953;54.302;10.128;2023-05-10T05:56:07;12.80;99.90
15707;DHT22;7953;54.302;10.128;2023-05-10T05:58:35;12.80;99.90
15707;DHT22;7953;54.302;10.128;2023-05-10T06:01:02;12.90;99.90
15707;DHT22;7953;54.302;10.128;2023-05-10T06:03:30;13.00;99.90
15707;DHT22;7953;54.302;10.128;2023-05-10T06:05:58;13.10;99.90
15707;DHT22;7953;54.302;10.128;2023-05-10T06:08:25;13.20;99.90
15707;DHT22;7953;54.302;10.128;2023-05-10T06:10:51;13.20;99.90
15707;DHT22;7953;54.302;10.128;2023-05-10T06:13:18;13.30;99.90
15707;DHT22;7953;54.302;10.128;2023-05-10T06:15:45;13.40;99.90
15707;DHT22;7953;54.302;10.128;2023-05-10T06:18:12;13.50;99.90
15707;DHT22;7953;54.302;10.128;2023-05-10T06:20:41;13.50;99.90
15707;DHT22;7953;54.302;10.128;2023-05-10T06:23:08;13.40;99.90
15707;DHT22;7953;54.302;10.128;2023-05-10T06:25:34;13.50;99.90
15707;DHT22;7953;54.302;10.128;2023-05-10T06:28:01;13.50;99.90
15707;DHT22;7953;54.302;10.128;2023-05-10T06:30:28;13.50;99.90
15707;DHT22;7953;54.302;10.128;2023-05-10T06:32:55;13.60;99.90
15707;DHT22;7953;54.302;10.128;2023-05-10T06:35:22;13.60;99.90
15707;DHT22;7953;54.302;10.128;2023-05-10T06:37:51;13.60;99.90
15707;DHT22;7953;54.302;10.128;2023-05-10T06:40:18;13.70;99.90
15707;DHT22;7953;54.302;10.128;2023-05-10T06:42:45;13.70;99.90
15707;DHT22;7953;54.302;10.128;2023-05-10T06:45:12;13.70;99.90
15707;DHT22;7953;54.302;10.128;2023-05-10T06:47:39;13.70;99.90
15707;DHT22;7953;54.302;10.128;2023-05-10T06:50:07;13.80;99.90
15707;DHT22;7953;54.302;10.128;2023-05-10T06:52:34;13.80;99.90
15707;DHT22;7953;54.302;10.128;2023-05-10T06:55:03;14.00;99.90
15707;DHT22;7953;54.302;10.128;2023-05-10T06:57:30;14.10;99.90
15707;DHT22;7953;54.302;10.128;2023-05-10T06:59:57;14.20;99.90
15707;DHT22;7953;54.302;10.128;2023-05-10T07:02:24;14.30;99.90
15707;DHT22;7953;54.302;10.128;2023-05-10T07:04:51;14.40;99.90
15707;DHT22;7953;54.302;10.128;2023-05-10T07:07:18;14.40;99.90
15707;DHT22;7953;54.302;10.128;2023-05-10T07:09:45;14.40;99.90
15707;DHT22;7953;54.302;10.128;2023-05-10T07:12:13;14.40;99.90
15707;DHT22;7953;54.302;10.128;2023-05-10T07:14:40;14.50;99.90
15707;DHT22;7953;54.302;10.128;2023-05-10T07:17:07;14.50;99.90
15707;DHT22;7953;54.302;10.128;2023-05-10T07:19:34;14.70;99.90
15707;DHT22;7953;54.302;10.128;2023-05-10T07:22:01;14.70;99.90
15707;DHT22;7953;54.302;10.128;2023-05-10T07:24:28;14.80;99.90
15707;DHT22;7953;54.302;10.128;2023-05-10T07:26:55;14.80;99.90
15707;DHT22;7953;54.302;10.128;2023-05-10T07:29:23;14.80;99.90
15707;DHT22;7953;54.302;10.128;2023-05-10T07:31:50;14.80;99.90
15707;DHT22;7953;54.302;10.128;2023-05-10T07:34:17;14.90;99.90
15707;DHT22;7953;54.302;10.128;2023-05-10T07:36:44;15.00;99.90
15707;DHT22;7953;54.302;10.128;2023-05-10T07:39:11;15.10;99.90
15707;DHT22;7953;54.302;10.128;2023-05-10T07:41:38;15.10;99.90
15707;DHT22;7953;54.302;10.128;2023-05-10T07:44:05;15.20;99.90
15707;DHT22;7953;54.302;10.128;2023-05-10T07:46:33;15.40;99.90
15707;DHT22;7953;54.302;10.128;2023-05-10T07:49:01;15.60;99.90
15707;DHT22;7953;54.302;10.128;2023-05-10T07:51:28;15.70;99.90
15707;DHT22;7953;54.302;10.128;2023-05-10T07:53:54;15.90;99.90
15707;DHT22;7953;54.302;10.128;2023-05-10T07:56:24;16.10;99.90
15707;DHT22;7953;54.302;10.128;2023-05-10T07:58:52;16.30;99.90
15707;DHT22;7953;54.302;10.128;2023-05-10T08:01:19;16.20;99.90
15707;DHT22;7953;54.302;10.128;2023-05-10T08:03:48;16.40;99.90
15707;DHT22;7953;54.302;10.128;2023-05-10T08:06:17;16.70;99.90
15707;DHT22;7953;54.302;10.128;2023-05-10T08:08:45;16.70;99.90
15707;DHT22;7953;54.302;10.128;2023-05-10T08:11:15;16.80;99.90
15707;DHT22;7953;54.302;10.128;2023-05-10T08:13:42;17.00;99.90
15707;DHT22;7953;54.302;10.128;2023-05-10T08:16:08;17.40;99.90
15707;DHT22;7953;54.302;10.128;2023-05-10T08:18:35;17.30;99.90
15707;DHT22;7953;54.302;10.128;2023-05-10T08:21:04;17.50;99.90
15707;DHT22;7953;54.302;10.128;2023-05-10T08:23:31;17.40;99.90
15707;DHT22;7953;54.302;10.128;2023-05-10T08:25:57;17.50;99.90
15707;DHT22;7953;54.302;10.128;2023-05-10T08:28:24;17.60;99.90
15707;DHT22;7953;54.302;10.128;2023-05-10T08:30:51;17.80;99.90
15707;DHT22;7953;54.302;10.128;2023-05-10T08:33:18;18.10;99.90
15707;DHT22;7953;54.302;10.128;2023-05-10T08:35:45;18.40;99.90
15707;DHT22;7953;54.302;10.128;2023-05-10T08:38:13;18.70;99.90
15707;DHT22;7953;54.302;10.128;2023-05-10T08:40:42;18.90;99.90
15707;DHT22;7953;54.302;10.128;2023-05-10T08:43:10;18.90;99.90
15707;DHT22;7953;54.302;10.128;2023-05-10T08:45:38;18.70;99.90
15707;DHT22;7953;54.302;10.128;2023-05-10T08:48:06;18.40;99.90
15707;DHT22;7953;54.302;10.128;2023-05-10T08:50:35;18.30;99.90
15707;DHT22;7953;54.302;10.128;2023-05-10T08:53:05;18.30;99.90
15707;DHT22;7953;54.302;10.128;2023-05-10T08:55:34;18.00;99.90
15707;DHT22;7953;54.302;10.128;2023-05-10T08:58:02;18.00;99.90
15707;DHT22;7953;54.302;10.128;2023-05-10T09:00:29;18.00;99.90
15707;DHT22;7953;54.302;10.128;2023-05-10T09:02:57;18.10;99.90
15707;DHT22;7953;54.302;10.128;2023-05-10T09:05:24;18.40;99.90
15707;DHT22;7953;54.302;10.128;2023-05-10T09:07:51;18.50;99.90
15707;DHT22;7953;54.302;10.128;2023-05-10T09:10:19;18.50;99.90
15707;DHT22;7953;54.302;10.128;2023-05-10T09:12:48;18.40;99.90
15707;DHT22;7953;54.302;10.128;2023-05-10T09:15:16;18.50;99.90
15707;DHT22;7953;54.302;10.128;2023-05-10T09:17:45;18.60;99.90
15707;DHT22;7953;54.302;10.128;2023-05-10T09:20:12;18.40;99.90
15707;DHT22;7953;54.302;10.128;2023-05-10T09:22:39;18.50;99.90
15707;DHT22;7953;54.302;10.128;2023-05-10T09:25:07;18.80;99.90
15707;DHT22;7953;54.302;10.128;2023-05-10T09:27:35;19.10;99.90
15707;DHT22;7953;54.302;10.128;2023-05-10T09:30:04;19.40;99.90
15707;DHT22;7953;54.302;10.128;2023-05-10T09:32:39;19.40;99.90
15707;DHT22;7953;54.302;10.128;2023-05-10T09:35:07;19.40;99.90
15707;DHT22;7953;54.302;10.128;2023-05-10T09:37:34;19.00;99.90
15707;DHT22;7953;54.302;10.128;2023-05-10T09:40:04;19.00;99.90
15707;DHT22;7953;54.302;10.128;2023-05-10T09:42:33;19.00;99.90
15707;DHT22;7953;54.302;10.128;2023-05-10T09:45:05;19.20;99.90
15707;DHT22;7953;54.302;10.128;2023-05-10T09:47:33;19.20;99.90
15707;DHT22;7953;54.302;10.128;2023-05-10T09:50:00;19.40;99.90
15707;DHT22;7953;54.302;10.128;2023-05-10T09:52:30;19.60;99.90
15707;DHT22;7953;54.302;10.128;2023-05-10T09:54:57;19.70;99.90
15707;DHT22;7953;54.302;10.128;2023-05-10T09:57:24;19.60;99.90
15707;DHT22;7953;54.302;10.128;2023-05-10T09:59:51;19.80;99.90
15707;DHT22;7953;54.302;10.128;2023-05-10T10:02:21;20.00;99.90
15707;DHT22;7953;54.302;10.128;2023-05-10T10:04:55;20.40;99.90
15707;DHT22;7953;54.302;10.128;2023-05-10T10:07:23;20.80;99.90
15707;DHT22;7953;54.302;10.128;2023-05-10T10:09:51;20.40;99.90
15707;DHT22;7953;54.302;10.128;2023-05-10T10:12:18;20.10;99.90
15707;DHT22;7953;54.302;10.128;2023-05-10T10:14:46;20.50;99.90
15707;DHT22;7953;54.302;10.128;2023-05-10T10:17:15;20.80;99.90
15707;DHT22;7953;54.302;10.128;2023-05-10T10:19:43;20.80;99.90
15707;DHT22;7953;54.302;10.128;2023-05-10T10:22:11;20.90;99.90
15707;DHT22;7953;54.302;10.128;2023-05-10T10:24:39;20.80;99.90
15707;DHT22;7953;54.302;10.128;2023-05-10T10:27:28;20.60;99.90
15707;DHT22;7953;54.302;10.128;2023-05-10T10:30:03;20.60;99.90
15707;DHT22;7953;54.302;10.128;2023-05-10T10:32:42;20.50;99.90
15707;DHT22;7953;54.302;10.128;2023-05-10T10:35:15;20.60;99.90
15707;DHT22;7953;54.302;10.128;2023-05-10T10:37:46;21.00;99.90
15707;DHT22;7953;54.302;10.128;2023-05-10T10:40:23;20.90;99.90
15707;DHT22;7953;54.302;10.128;2023-05-10T10:42:51;20.90;99.90
15707;DHT22;7953;54.302;10.128;2023-05-10T10:45:20;20.80;99.90
15707;DHT22;7953;54.302;10.128;2023-05-10T10:47:47;20.60;99.90
15707;DHT22;7953;54.302;10.128;2023-05-10T10:50:16;20.30;99.90
15707;DHT22;7953;54.302;10.128;2023-05-10T10:52:44;20.10;99.90
15707;DHT22;7953;54.302;10.128;2023-05-10T10:55:12;20.10;99.90
15707;DHT22;7953;54.302;10.128;2023-05-10T10:57:47;20.10;99.90
15707;DHT22;7953;54.302;10.128;2023-05-10T11:00:20;20.30;99.90
15707;DHT22;7953;54.302;10.128;2023-05-10T11:02:49;20.30;99.90
15707;DHT22;7953;54.302;10.128;2023-05-10T11:05:36;20.40;99.90
15707;DHT22;7953;54.302;10.128;2023-05-10T11:08:19;20.60;99.90
15707;DHT22;7953;54.302;10.128;2023-05-10T11:11:06;20.40;99.90
15707;DHT22;7953;54.302;10.128;2023-05-10T11:13:37;20.00;99.90
15707;DHT22;7953;54.302;10.128;2023-05-10T11:16:16;19.90;99.90
15707;DHT22;7953;54.302;10.128;2023-05-10T11:19:01;19.90;99.90
15707;DHT22;7953;54.302;10.128;2023-05-10T11:21:29;19.80;99.90
15707;DHT22;7953;54.302;10.128;2023-05-10T11:23:57;19.70;99.90
15707;DHT22;7953;54.302;10.128;2023-05-10T11:26:25;19.70;99.90
15707;DHT22;7953;54.302;10.128;2023-05-10T11:28:53;19.60;99.90
15707;DHT22;7953;54.302;10.128;2023-05-10T11:31:24;19.30;99.90
15707;DHT22;7953;54.302;10.128;2023-05-10T11:33:53;19.30;99.90
15707;DHT22;7953;54.302;10.128;2023-05-10T11:36:21;19.30;99.90
15707;DHT22;7953;54.302;10.128;2023-05-10T11:38:49;19.30;99.90
15707;DHT22;7953;54.302;10.128;2023-05-10T11:41:18;19.10;99.90
15707;DHT22;7953;54.302;10.128;2023-05-10T11:43:49;18.90;99.90
15707;DHT22;7953;54.302;10.128;2023-05-10T11:46:18;18.80;99.90
15707;DHT22;7953;54.302;10.128;2023-05-10T11:48:47;18.80;99.90
15707;DHT22;7953;54.302;10.128;2023-05-10T11:51:15;18.90;99.90
15707;DHT22;7953;54.302;10.128;2023-05-10T11:53:42;18.90;99.90
15707;DHT22;7953;54.302;10.128;2023-05-10T11:56:11;19.00;99.90
15707;DHT22;7953;54.302;10.128;2023-05-10T11:58:39;19.10;99.90
15707;DHT22;7953;54.302;10.128;2023-05-10T12:01:07;18.90;99.90
15707;DHT22;7953;54.302;10.128;2023-05-10T12:03:34;19.00;99.90
15707;DHT22;7953;54.302;10.128;2023-05-10T12:06:02;19.00;99.90
15707;DHT22;7953;54.302;10.128;2023-05-10T12:08:29;19.10;99.90
15707;DHT22;7953;54.302;10.128;2023-05-10T12:11:04;19.20;99.90
15707;DHT22;7953;54.302;10.128;2023-05-10T12:13:37;19.20;99.90
15707;DHT22;7953;54.302;10.128;2023-05-10T12:16:16;19.00;99.90
15707;DHT22;7953;54.302;10.128;2023-05-10T12:18:43;18.80;99.90
15707;DHT22;7953;54.302;10.128;2023-05-10T12:21:10;18.70;99.90
15707;DHT22;7953;54.302;10.128;2023-05-10T12:23:38;18.40;99.90
15707;DHT22;7953;54.302;10.128;2023-05-10T12:26:05;18.30;99.90
15707;DHT22;7953;54.302;10.128;2023-05-10T12:28:34;18.30;99.90
15707;DHT22;7953;54.302;10.128;2023-05-10T12:31:01;18.20;99.90
15707;DHT22;7953;54.302;10.128;2023-05-10T12:33:36;18.20;99.90
15707;DHT22;7953;54.302;10.128;2023-05-10T12:36:05;17.80;99.90
15707;DHT22;7953;54.302;10.128;2023-05-10T12:38:34;17.40;99.90
15707;DHT22;7953;54.302;10.128;2023-05-10T12:41:03;17.30;99.90
15707;DHT22;7953;54.302;10.128;2023-05-10T12:43:30;17.20;99.90
15707;DHT22;7953;54.302;10.128;2023-05-10T12:45:58;16.90;99.90
15707;DHT22;7953;54.302;10.128;2023-05-10T12:48:30;16.60;99.90
15707;DHT22;7953;54.302;10.128;2023-05-10T12:50:59;16.40;99.90
15707;DHT22;7953;54.302;10.128;2023-05-10T12:53:26;16.50;99.90
15707;DHT22;7953;54.302;10.128;2023-05-10T12:55:53;16.40;99.90
15707;DHT22;7953;54.302;10.128;2023-05-10T12:58:20;16.20;99.90
15707;DHT22;7953;54.302;10.128;2023-05-10T13:00:47;16.10;99.90
15707;DHT22;7953;54.302;10.128;2023-05-10T13:03:15;16.20;99.90
15707;DHT22;7953;54.302;10.128;2023-05-10T13:05:42;16.00;99.90
15707;DHT22;7953;54.302;10.128;2023-05-10T13:08:08;16.00;99.90
15707;DHT22;7953;54.302;10.128;2023-05-10T13:10:35;15.90;99.90
15707;DHT22;7953;54.302;10.128;2023-05-10T13:13:02;16.00;99.90
15707;DHT22;7953;54.302;10.128;2023-05-10T13:15:29;16.00;99.90
15707;DHT22;7953;54.302;10.128;2023-05-10T13:17:56;16.10;99.90
15707;DHT22;7953;54.302;10.128;2023-05-10T13:20:24;16.10;99.90
15707;DHT22;7953;54.302;10.128;2023-05-10T13:22:51;16.10;99.90
15707;DHT22;7953;54.302;10.128;2023-05-10T13:25:18;16.00;99.90
15707;DHT22;7953;54.302;10.128;2023-05-10T13:27:45;16.00;99.90
15707;DHT22;7953;54.302;10.128;2023-05-10T13:30:12;15.90;99.90
15707;DHT22;7953;54.302;10.128;2023-05-10T13:32:39;15.90;99.90
15707;DHT22;7953;54.302;10.128;2023-05-10T13:35:08;15.90;99.90
15707;DHT22;7953;54.302;10.128;2023-05-10T13:37:36;16.00;99.90
15707;DHT22;7953;54.302;10.128;2023-05-10T13:40:04;16.10;99.90
15707;DHT22;7953;54.302;10.128;2023-05-10T13:42:31;16.00;99.90
15707;DHT22;7953;54.302;10.128;2023-05-10T13:44:59;16.00;99.90
15707;DHT22;7953;54.302;10.128;2023-05-10T13:47:26;15.80;99.90
15707;DHT22;7953;54.302;10.128;2023-05-10T13:49:52;15.80;99.90
15707;DHT22;7953;54.302;10.128;2023-05-10T13:52:20;15.70;99.90
15707;DHT22;7953;54.302;10.128;2023-05-10T13:54:48;15.70;99.90
15707;DHT22;7953;54.302;10.128;2023-05-10T13:57:17;15.50;99.90
15707;DHT22;7953;54.302;10.128;2023-05-10T13:59:44;15.60;99.90
15707;DHT22;7953;54.302;10.128;2023-05-10T14:02:11;15.60;99.90
15707;DHT22;7953;54.302;10.128;2023-05-10T14:04:38;15.70;99.90
15707;DHT22;7953;54.302;10.128;2023-05-10T14:07:05;15.60;99.90
15707;DHT22;7953;54.302;10.128;2023-05-10T14:09:32;15.60;99.90
15707;DHT22;7953;54.302;10.128;2023-05-10T14:12:00;15.60;99.90
15707;DHT22;7953;54.302;10.128;2023-05-10T14:14:27;15.60;99.90
15707;DHT22;7953;54.302;10.128;2023-05-10T14:16:54;15.60;99.90
15707;DHT22;7953;54.302;10.128;2023-05-10T14:19:21;15.70;99.90
15707;DHT22;7953;54.302;10.128;2023-05-10T14:21:48;15.70;99.90
15707;DHT22;7953;54.302;10.128;2023-05-10T14:24:15;15.90;99.90
15707;DHT22;7953;54.302;10.128;2023-05-10T14:26:42;15.90;99.90
15707;DHT22;7953;54.302;10.128;2023-05-10T14:29:10;15.90;99.90
15707;DHT22;7953;54.302;10.128;2023-05-10T14:31:37;15.80;99.90
15707;DHT22;7953;54.302;10.128;2023-05-10T14:34:04;15.90;99.90
15707;DHT22;7953;54.302;10.128;2023-05-10T14:36:31;16.00;99.90
15707;DHT22;7953;54.302;10.128;2023-05-10T14:38:57;16.00;99.90
15707;DHT22;7953;54.302;10.128;2023-05-10T14:41:25;16.10;99.90
15707;DHT22;7953;54.302;10.128;2023-05-10T14:43:51;16.20;99.90
15707;DHT22;7953;54.302;10.128;2023-05-10T14:46:20;16.20;99.90
15707;DHT22;7953;54.302;10.128;2023-05-10T14:48:46;16.20;99.90
15707;DHT22;7953;54.302;10.128;2023-05-10T14:51:13;16.30;99.90
15707;DHT22;7953;54.302;10.128;2023-05-10T14:53:40;16.40;99.90
15707;DHT22;7953;54.302;10.128;2023-05-10T14:56:07;16.40;99.90
15707;DHT22;7953;54.302;10.128;2023-05-10T14:58:34;16.50;99.90
15707;DHT22;7953;54.302;10.128;2023-05-10T15:01:01;16.50;99.90
15707;DHT22;7953;54.302;10.128;2023-05-10T15:03:29;16.30;99.90
15707;DHT22;7953;54.302;10.128;2023-05-10T15:05:56;16.30;99.90
15707;DHT22;7953;54.302;10.128;2023-05-10T15:08:23;16.40;99.90
15707;DHT22;7953;54.302;10.128;2023-05-10T15:10:50;16.50;99.90
15707;DHT22;7953;54.302;10.128;2023-05-10T15:13:17;16.50;99.90
15707;DHT22;7953;54.302;10.128;2023-05-10T15:15:44;16.40;99.90
15707;DHT22;7953;54.302;10.128;2023-05-10T15:18:11;16.50;99.90
15707;DHT22;7953;54.302;10.128;2023-05-10T15:20:39;16.50;99.90
15707;DHT22;7953;54.302;10.128;2023-05-10T15:23:06;16.40;99.90
15707;DHT22;7953;54.302;10.128;2023-05-10T15:25:33;16.30;99.90
15707;DHT22;7953;54.302;10.128;2023-05-10T15:28:03;16.40;99.90
15707;DHT22;7953;54.302;10.128;2023-05-10T15:30:30;16.50;99.90
15707;DHT22;7953;54.302;10.128;2023-05-10T15:32:56;16.50;99.90
15707;DHT22;7953;54.302;10.128;2023-05-10T15:35:24;16.50;99.90
15707;DHT22;7953;54.302;10.128;2023-05-10T15:37:53;16.70;99.90
15707;DHT22;7953;54.302;10.128;2023-05-10T15:40:20;16.80;99.90